Weather at Fort Lauderdale Executive Airport

Public forecast

Using degrees Fahrenheit for public forecast. Weather courtesy of forecast.io.

Current aviation weather report (METAR) for Fort Lauderdale Executive Airport

Retrieved 2021/01/23 00:53 UTC (24 minutes ago):

KFXE 230053Z 20003KT 10SM CLR 21/14 A3003 RMK AO2 SLP170 T02110144

Aviation forecast (TAF) for Fort Lauderdale Executive Airport

Retrieved 2021-01-23 00:28 UTC (49 minutes ago):

TAF KFXE 222325Z 2300/2324 24006KT P6SM FEW050 FM230100 VRB03KT P6SM FEW015 FEW250 FM231600 08008KT P6SM FEW050 SCT250